Time;durP1;ratioP1;P1;durP2;ratioP2;P2;SDS_P1;SDS_P2;PMS_P1;PMS_P2;Temp;Humidity;BMP_temperature;BMP_pressure;BME280_temperature;BME280_humidity;BME280_pressure;Samples;Min_cycle;Max_cycle;Signal;HPM_P1;HPM_P2
2023/02/07 00:02:00;;;;;;;20.23;10.25;;;-2.40;98.00;;;;;;5040834;28;20052;-65
2023/02/07 00:04:26;;;;;;;19.33;11.18;;;-2.40;98.00;;;;;;5036035;28;20132;-65
2023/02/07 00:06:51;;;;;;;16.02;10.55;;;-2.40;98.00;;;;;;5044402;28;20060;-64
2023/02/07 00:09:17;;;;;;;17.15;10.73;;;-2.40;98.00;;;;;;5048627;28;20033;-64
2023/02/07 00:11:42;;;;;;;15.38;10.27;;;-2.40;98.00;;;;;;5051213;28;20029;-64
2023/02/07 00:14:10;;;;;;;16.65;11.30;;;-2.50;98.00;;;;;;5034894;28;20021;-66
2023/02/07 00:16:36;;;;;;;22.13;11.45;;;-2.70;98.00;;;;;;5043224;28;20108;-64
2023/02/07 00:19:05;;;;;;;17.08;10.98;;;-2.80;98.00;;;;;;5042163;28;20018;-66
2023/02/07 00:21:31;;;;;;;18.48;11.45;;;-2.80;98.00;;;;;;5052375;28;20029;-65
2023/02/07 00:23:57;;;;;;;19.58;12.27;;;-2.90;98.00;;;;;;5036986;28;20029;-65
2023/02/07 00:26:25;;;;;;;18.58;11.20;;;-3.00;98.00;;;;;;5049250;28;20092;-65
2023/02/07 00:28:52;;;;;;;18.55;11.38;;;-3.10;98.00;;;;;;5034846;28;20029;-64
2023/02/07 00:31:24;;;;;;;20.48;12.25;;;-3.10;98.00;;;;;;5040679;28;21700;-65
2023/02/07 00:33:51;;;;;;;19.05;11.05;;;-3.20;98.00;;;;;;5041739;28;20036;-64
2023/02/07 00:36:21;;;;;;;21.05;11.80;;;-3.30;98.00;;;;;;5046651;28;20032;-65
2023/02/07 00:38:47;;;;;;;21.02;12.73;;;-3.30;98.00;;;;;;5046865;28;20017;-65
2023/02/07 00:41:14;;;;;;;19.50;12.18;;;-3.40;98.00;;;;;;5049538;28;20457;-64
2023/02/07 00:43:41;;;;;;;22.42;12.88;;;-3.40;98.00;;;;;;5034497;28;20532;-64
2023/02/07 00:46:07;;;;;;;20.60;12.68;;;-3.50;98.00;;;;;;5034689;28;20033;-64
2023/02/07 00:48:33;;;;;;;23.25;13.07;;;-3.50;98.00;;;;;;5038336;28;20021;-65
2023/02/07 00:50:59;;;;;;;23.02;13.25;;;-3.60;98.00;;;;;;5034938;28;20029;-64
2023/02/07 00:53:26;;;;;;;22.10;12.07;;;-3.60;98.00;;;;;;5050827;28;20446;-65
2023/02/07 00:55:52;;;;;;;26.02;14.93;;;-3.60;98.00;;;;;;5050512;28;20029;-64
2023/02/07 00:58:18;;;;;;;25.27;14.07;;;-3.70;98.00;;;;;;5040195;28;20081;-64
2023/02/07 01:00:47;;;;;;;20.38;12.60;;;-3.80;98.00;;;;;;5049164;28;20065;-64
2023/02/07 01:03:13;;;;;;;25.25;15.38;;;-3.80;98.00;;;;;;5045453;28;20113;-64
2023/02/07 01:05:39;;;;;;;23.45;13.93;;;-3.90;98.00;;;;;;5046750;28;20075;-64
2023/02/07 01:08:05;;;;;;;24.55;14.65;;;-3.90;98.00;;;;;;5040033;28;20037;-64
2023/02/07 01:10:31;;;;;;;25.75;15.48;;;-3.90;98.00;;;;;;5046992;28;20061;-64
2023/02/07 01:12:57;;;;;;;25.70;15.30;;;-4.00;98.00;;;;;;5049101;28;20020;-64
2023/02/07 01:15:23;;;;;;;39.72;20.65;;;-4.10;98.00;;;;;;5058789;28;20074;-65
2023/02/07 01:17:48;;;;;;;28.33;16.60;;;-4.10;98.00;;;;;;5046560;28;20030;-64
2023/02/07 01:20:14;;;;;;;27.05;14.95;;;-4.00;98.00;;;;;;5053008;28;20071;-64
2023/02/07 01:22:40;;;;;;;27.15;16.17;;;-4.00;98.00;;;;;;5038985;28;20032;-64
2023/02/07 01:25:06;;;;;;;26.48;16.60;;;-4.10;98.00;;;;;;5053082;28;20084;-65
2023/02/07 01:27:33;;;;;;;27.45;16.13;;;-4.20;98.00;;;;;;5043561;28;20037;-65
2023/02/07 01:29:59;;;;;;;27.77;15.45;;;-4.30;98.00;;;;;;5041085;28;20067;-64
2023/02/07 01:32:25;;;;;;;36.72;19.15;;;-4.40;98.00;;;;;;5051426;28;20037;-64
2023/02/07 01:34:50;;;;;;;32.28;17.05;;;-4.20;98.00;;;;;;5037717;28;20033;-64
2023/02/07 01:37:16;;;;;;;25.15;15.80;;;-4.20;98.00;;;;;;5042101;28;20032;-64
2023/02/07 01:39:42;;;;;;;27.70;15.95;;;-4.10;97.70;;;;;;5047731;28;20026;-64
2023/02/07 01:42:13;;;;;;;26.33;16.23;;;-4.00;98.00;;;;;;5053653;28;20044;-64
2023/02/07 01:44:41;;;;;;;31.55;17.23;;;-4.00;98.00;;;;;;5057820;28;20092;-64
2023/02/07 01:47:13;;;;;;;28.40;16.80;;;-4.00;98.00;;;;;;5044061;28;20396;-64
2023/02/07 01:49:39;;;;;;;26.77;16.15;;;-3.90;98.00;;;;;;5037617;28;20087;-65
2023/02/07 01:52:15;;;;;;;29.30;16.88;;;-3.90;98.00;;;;;;5053339;28;20029;-64
2023/02/07 01:54:41;;;;;;;31.77;17.52;;;-3.90;98.00;;;;;;5051804;28;20033;-65
2023/02/07 01:57:11;;;;;;;32.72;17.73;;;-3.90;98.00;;;;;;5042219;28;20044;-64
2023/02/07 01:59:42;;;;;;;29.13;17.23;;;-3.90;98.00;;;;;;5044547;28;20035;-64
2023/02/07 02:02:10;;;;;;;27.27;16.88;;;-4.00;98.00;;;;;;5044988;28;20052;-64
2023/02/07 02:04:36;;;;;;;30.20;17.00;;;-4.10;98.00;;;;;;5047774;28;20028;-64
2023/02/07 02:07:03;;;;;;;29.65;16.50;;;-4.20;98.00;;;;;;5046505;28;20037;-64
2023/02/07 02:09:28;;;;;;;26.92;17.35;;;-4.20;98.00;;;;;;5035061;28;20029;-64
2023/02/07 02:12:13;;;;;;;29.42;17.13;;;-4.20;98.00;;;;;;5042152;28;20480;-64
2023/02/07 02:15:04;;;;;;;27.30;16.83;;;-4.30;98.00;;;;;;5046726;28;20046;-64
2023/02/07 02:17:58;;;;;;;28.80;17.08;;;-4.30;98.00;;;;;;5044609;28;20373;-64
2023/02/07 02:20:58;;;;;;;29.40;16.30;;;-4.30;98.00;;;;;;5034805;28;20037;-63
2023/02/07 02:23:49;;;;;;;31.60;16.73;;;-4.30;98.00;;;;;;5048216;28;20030;-64
2023/02/07 02:26:54;;;;;;;26.13;15.98;;;-4.40;98.00;;;;;;5039857;28;20049;-64
2023/02/07 02:29:44;;;;;;;29.20;16.63;;;-4.40;98.00;;;;;;5041640;28;20060;-64
2023/02/07 02:32:28;;;;;;;28.75;16.83;;;-4.50;98.00;;;;;;5044504;28;20033;-64
2023/02/07 02:35:18;;;;;;;29.38;16.95;;;-4.60;98.00;;;;;;5050774;28;20103;-64
2023/02/07 02:37:44;;;;;;;26.70;15.80;;;-4.60;98.00;;;;;;5045171;28;20029;-64
2023/02/07 02:40:39;;;;;;;30.48;16.30;;;-4.60;98.00;;;;;;5042106;28;20025;-64
2023/02/07 02:43:19;;;;;;;31.45;16.30;;;-4.50;98.00;;;;;;5054435;28;20021;-64
2023/02/07 02:45:52;;;;;;;29.10;15.95;;;-4.40;98.00;;;;;;5039526;28;20026;-64
2023/02/07 02:48:18;;;;;;;26.17;15.63;;;-4.30;98.00;;;;;;5031940;28;20135;-64
2023/02/07 02:50:46;;;;;;;25.25;14.82;;;-4.20;98.00;;;;;;5031246;28;20372;-63
2023/02/07 02:53:13;;;;;;;26.58;16.75;;;-4.10;98.00;;;;;;5038030;28;20195;-63
2023/02/07 02:56:15;;;;;;;28.38;15.70;;;-4.00;98.00;;;;;;5048355;28;20029;-63
2023/02/07 02:58:49;;;;;;;27.17;17.65;;;-4.00;98.00;;;;;;5040864;28;20099;-63
2023/02/07 03:01:41;;;;;;;32.05;18.20;;;-3.90;98.00;;;;;;5043563;28;20108;-63
2023/02/07 03:04:40;;;;;;;30.95;19.35;;;-3.90;98.00;;;;;;5050084;28;20028;-63
2023/02/07 03:07:11;;;;;;;31.52;19.90;;;-3.80;98.00;;;;;;5042990;28;20114;-62
2023/02/07 03:10:06;;;;;;;33.45;20.15;;;-3.80;98.00;;;;;;5051029;28;20029;-63
2023/02/07 03:12:41;;;;;;;31.42;20.15;;;-3.70;98.00;;;;;;5043815;28;20040;-64
2023/02/07 03:15:20;;;;;;;34.95;21.45;;;-3.70;98.00;;;;;;5049693;28;20030;-64
2023/02/07 03:17:54;;;;;;;36.53;22.05;;;-3.80;98.00;;;;;;5044021;28;20029;-64
2023/02/07 03:20:29;;;;;;;37.05;22.13;;;-3.90;98.00;;;;;;5039061;28;20025;-64
2023/02/07 03:22:57;;;;;;;38.15;21.33;;;-4.00;98.00;;;;;;5035654;28;20059;-64
2023/02/07 03:25:24;;;;;;;32.55;21.05;;;-4.10;98.00;;;;;;5043952;28;20049;-63
2023/02/07 03:27:52;;;;;;;36.13;22.30;;;-4.10;98.00;;;;;;5044020;28;20111;-63
2023/02/07 03:30:20;;;;;;;36.08;21.50;;;-4.20;98.00;;;;;;5036505;28;20105;-64
2023/02/07 03:32:55;;;;;;;32.58;20.63;;;-4.20;98.00;;;;;;5042719;28;20013;-64
2023/02/07 03:35:26;;;;;;;34.65;21.63;;;-4.20;98.00;;;;;;5042337;28;20029;-63
2023/02/07 03:38:00;;;;;;;34.08;21.13;;;-4.20;98.00;;;;;;5047838;28;20025;-63
2023/02/07 03:40:27;;;;;;;;;;;-4.20;98.00;;;;;;5038730;28;20027;-64
2023/02/07 03:43:08;;;;;;;33.33;21.40;;;-4.20;98.00;;;;;;5053446;28;19905;-63
2023/02/07 03:45:34;;;;;;;36.75;21.58;;;-4.20;98.00;;;;;;5039524;28;20013;-64
2023/02/07 03:47:59;;;;;;;35.58;20.98;;;-4.20;98.00;;;;;;5041772;28;20448;-64
2023/02/07 03:50:28;;;;;;;34.58;21.70;;;-4.20;98.00;;;;;;5045225;28;20028;-63
2023/02/07 03:52:53;;;;;;;35.55;21.45;;;-4.20;98.00;;;;;;5052047;28;20063;-63
2023/02/07 03:55:19;;;;;;;35.05;20.27;;;-4.30;98.00;;;;;;5052020;28;20456;-63
2023/02/07 03:57:44;;;;;;;35.33;21.38;;;-4.30;98.00;;;;;;5039936;28;20426;-64
2023/02/07 04:00:10;;;;;;;36.78;21.90;;;-4.30;98.00;;;;;;5044159;28;20029;-63
2023/02/07 04:02:36;;;;;;;35.53;21.23;;;-4.30;98.00;;;;;;5041631;28;20080;-63
2023/02/07 04:05:04;;;;;;;33.08;22.27;;;-4.30;98.00;;;;;;5037105;28;20040;-63
2023/02/07 04:07:33;;;;;;;38.30;20.52;;;-4.30;98.00;;;;;;5036379;28;20783;-63
2023/02/07 04:09:59;;;;;;;38.22;21.70;;;-4.40;98.00;;;;;;5044603;28;20112;-63
2023/02/07 04:12:31;;;;;;;38.38;22.75;;;-4.40;98.00;;;;;;5038451;28;20486;-62
2023/02/07 04:14:57;;;;;;;35.22;21.85;;;-4.40;98.00;;;;;;5051306;28;20045;-63
2023/02/07 04:17:23;;;;;;;34.63;21.05;;;-4.40;98.00;;;;;;5048213;28;20029;-63
2023/02/07 04:19:48;;;;;;;32.92;20.30;;;-4.50;98.00;;;;;;5043920;28;20020;-63
2023/02/07 04:22:14;;;;;;;31.00;20.55;;;-4.50;98.00;;;;;;5048569;28;20104;-63
2023/02/07 04:24:39;;;;;;;34.85;20.42;;;-4.50;98.00;;;;;;5044391;28;20046;-63
2023/02/07 04:27:05;;;;;;;33.10;19.85;;;-4.50;98.00;;;;;;5047940;28;20033;-63
2023/02/07 04:29:31;;;;;;;32.55;20.10;;;-4.50;98.00;;;;;;5047570;28;20052;-63
2023/02/07 04:31:57;;;;;;;30.70;19.13;;;-4.40;98.00;;;;;;5046588;28;20060;-63
2023/02/07 04:34:22;;;;;;;31.05;19.92;;;-4.40;98.00;;;;;;5050062;28;20055;-63
2023/02/07 04:36:48;;;;;;;31.73;18.95;;;-4.40;98.00;;;;;;5042689;28;20060;-63
2023/02/07 04:39:13;;;;;;;33.53;20.35;;;-4.40;98.00;;;;;;5041279;28;20035;-63
2023/02/07 04:41:39;;;;;;;35.28;21.45;;;-4.40;98.00;;;;;;5053211;28;20113;-63
2023/02/07 04:44:04;;;;;;;29.92;19.10;;;-4.40;98.00;;;;;;5051208;28;20385;-62
2023/02/07 04:46:30;;;;;;;31.42;19.50;;;-4.50;98.00;;;;;;5044243;28;20037;-62
2023/02/07 04:48:55;;;;;;;33.45;19.38;;;-4.50;98.00;;;;;;5039626;28;20026;-63
2023/02/07 04:51:21;;;;;;;32.63;20.00;;;-4.50;98.00;;;;;;5047105;28;20116;-63
2023/02/07 04:53:47;;;;;;;32.25;20.63;;;-4.60;98.00;;;;;;5043664;28;20318;-63
2023/02/07 04:56:12;;;;;;;33.10;20.88;;;-4.60;98.00;;;;;;5047294;28;20112;-63
2023/02/07 04:58:38;;;;;;;35.72;20.75;;;-4.50;98.00;;;;;;5042963;28;20166;-62
2023/02/07 05:01:04;;;;;;;34.65;19.80;;;-4.50;98.00;;;;;;5046790;28;20489;-62
2023/02/07 05:03:29;;;;;;;31.33;21.30;;;-4.50;98.00;;;;;;5051578;28;20105;-62
2023/02/07 05:05:59;;;;;;;33.20;20.88;;;-4.50;98.00;;;;;;5042556;28;20036;-62
2023/02/07 05:08:25;;;;;;;37.95;20.65;;;-4.50;98.00;;;;;;5036635;28;20846;-62
2023/02/07 05:10:52;;;;;;;31.20;20.73;;;-4.50;98.00;;;;;;5056326;28;20033;-62
2023/02/07 05:13:20;;;;;;;31.70;18.60;;;-4.50;98.00;;;;;;5041158;28;20051;-61
2023/02/07 05:15:47;;;;;;;33.42;20.52;;;-4.40;98.00;;;;;;5052414;28;20029;-61
2023/02/07 05:18:14;;;;;;;30.05;19.05;;;-4.30;98.00;;;;;;5047737;28;20033;-62
2023/02/07 05:20:41;;;;;;;31.17;18.98;;;-4.40;98.00;;;;;;5040682;28;20102;-62
2023/02/07 05:23:08;;;;;;;31.02;19.52;;;-4.50;98.00;;;;;;5050906;28;20435;-62
2023/02/07 05:25:35;;;;;;;28.92;19.70;;;-4.50;98.00;;;;;;5037996;28;20114;-62
2023/02/07 05:28:01;;;;;;;31.73;19.85;;;-4.60;98.00;;;;;;5038378;28;20040;-63
2023/02/07 05:30:26;;;;;;;28.40;18.27;;;-4.70;98.00;;;;;;5037834;28;20377;-62
2023/02/07 05:33:04;;;;;;;28.52;19.13;;;-4.70;98.00;;;;;;5043759;28;20021;-63
2023/02/07 05:35:31;;;;;;;27.13;17.77;;;-4.80;98.00;;;;;;5038565;28;20040;-62
2023/02/07 05:37:56;;;;;;;32.00;19.70;;;-4.80;98.00;;;;;;5038351;28;20036;-62
2023/02/07 05:40:22;;;;;;;29.10;18.45;;;-4.90;98.00;;;;;;5039018;28;20403;-61
2023/02/07 05:42:47;;;;;;;37.80;22.60;;;-4.80;98.00;;;;;;5068304;28;20111;-62
2023/02/07 05:45:13;;;;;;;37.53;21.25;;;-4.80;98.00;;;;;;5077079;28;20025;-62
2023/02/07 05:47:39;;;;;;;40.67;23.45;;;-4.80;98.00;;;;;;5077157;28;20319;-62
2023/02/07 05:50:05;;;;;;;42.88;22.10;;;-4.90;98.00;;;;;;5043773;28;20037;-62
2023/02/07 05:52:31;;;;;;;37.42;21.20;;;-4.90;98.00;;;;;;5035295;28;20033;-61
2023/02/07 05:54:56;;;;;;;41.15;22.90;;;-4.90;98.00;;;;;;5038875;28;20652;-62
2023/02/07 05:57:22;;;;;;;37.97;22.58;;;-4.90;98.00;;;;;;5045840;28;20037;-62
2023/02/07 05:59:47;;;;;;;30.20;19.23;;;-4.90;98.00;;;;;;5036400;28;20026;-61
2023/02/07 06:02:13;;;;;;;35.55;19.88;;;-4.90;98.00;;;;;;5038184;28;20030;-60
2023/02/07 06:04:38;;;;;;;36.00;21.98;;;-4.90;98.00;;;;;;5046890;28;20033;-61
2023/02/07 06:07:04;;;;;;;32.70;21.92;;;-4.90;98.00;;;;;;5037416;28;20079;-63
2023/02/07 06:09:30;;;;;;;33.28;20.67;;;-4.90;98.00;;;;;;5040965;28;20037;-63
2023/02/07 06:11:55;;;;;;;37.33;21.33;;;-4.90;98.00;;;;;;5050506;28;20033;-62
2023/02/07 06:14:22;;;;;;;32.17;20.35;;;-5.00;98.00;;;;;;5042403;28;20029;-62
2023/02/07 06:16:47;;;;;;;33.60;20.50;;;-4.90;98.00;;;;;;5045658;28;20032;-62
2023/02/07 06:19:13;;;;;;;29.73;18.67;;;-5.00;98.00;;;;;;5047260;28;20111;-63
2023/02/07 06:21:39;;;;;;;30.80;18.85;;;-4.90;98.00;;;;;;5043610;28;20058;-63
2023/02/07 06:24:05;;;;;;;29.88;19.73;;;-5.00;98.00;;;;;;5001845;28;1052292;-62
2023/02/07 06:26:31;;;;;;;30.02;19.80;;;-5.00;98.00;;;;;;5042447;28;20029;-62
2023/02/07 06:28:56;;;;;;;32.40;19.75;;;-5.00;98.00;;;;;;5038980;28;20093;-62
2023/02/07 06:31:22;;;;;;;33.05;20.60;;;-5.00;98.00;;;;;;5043868;28;20029;-62
2023/02/07 06:33:47;;;;;;;32.20;21.02;;;-5.10;98.00;;;;;;5040953;28;20121;-61
2023/02/07 06:36:13;;;;;;;32.85;21.27;;;-5.20;98.00;;;;;;5035648;28;20029;-62
2023/02/07 06:38:38;;;;;;;32.22;20.70;;;-5.40;98.00;;;;;;5038228;28;20037;-62
2023/02/07 06:41:04;;;;;;;36.72;23.40;;;-5.50;98.00;;;;;;5041048;28;20087;-61
2023/02/07 06:43:30;;;;;;;35.42;22.40;;;-5.40;98.00;;;;;;5044617;28;20034;-61
2023/02/07 06:45:55;;;;;;;35.95;22.08;;;-5.30;98.00;;;;;;5052663;28;20057;-62
2023/02/07 06:48:21;;;;;;;38.85;23.85;;;-5.40;98.00;;;;;;5051154;28;20029;-62
2023/02/07 06:50:50;;;;;;;34.47;22.42;;;-5.40;98.00;;;;;;5036736;28;20040;-62
2023/02/07 06:53:15;;;;;;;37.15;22.48;;;-5.50;98.00;;;;;;5035835;28;20399;-62
2023/02/07 06:55:41;;;;;;;32.90;20.60;;;-5.50;98.00;;;;;;5038842;28;20031;-62
2023/02/07 06:58:07;;;;;;;31.95;20.05;;;-5.40;98.00;;;;;;5043521;28;20053;-61
2023/02/07 07:00:32;;;;;;;31.38;20.75;;;-5.30;98.00;;;;;;5039463;28;20026;-63
2023/02/07 07:02:59;;;;;;;31.00;20.05;;;-5.20;98.00;;;;;;5048138;28;20025;-62
2023/02/07 07:05:28;;;;;;;32.90;20.70;;;-5.20;98.00;;;;;;5038384;28;20070;-62
2023/02/07 07:07:55;;;;;;;33.33;21.42;;;-5.10;98.00;;;;;;5040934;28;20101;-61
2023/02/07 07:10:21;;;;;;;32.35;20.70;;;-5.10;98.00;;;;;;5037181;28;20088;-62
2023/02/07 07:12:47;;;;;;;30.92;21.77;;;-5.20;98.00;;;;;;5037285;28;20445;-62
2023/02/07 07:15:13;;;;;;;30.38;20.48;;;-5.10;98.00;;;;;;5044498;28;20078;-62
2023/02/07 07:17:39;;;;;;;31.13;20.05;;;-5.10;98.00;;;;;;5049514;28;20156;-61
2023/02/07 07:20:06;;;;;;;34.20;20.85;;;-5.10;98.00;;;;;;5039544;28;20454;-61
2023/02/07 07:22:32;;;;;;;36.85;21.27;;;-5.00;98.00;;;;;;5045163;28;20047;-61
2023/02/07 07:24:58;;;;;;;30.52;19.80;;;-5.00;98.00;;;;;;5036483;28;20072;-62
2023/02/07 07:27:23;;;;;;;31.15;20.05;;;-4.90;98.00;;;;;;5037906;28;20330;-62
2023/02/07 07:29:49;;;;;;;32.92;21.08;;;-4.90;98.00;;;;;;5046330;28;20025;-62
2023/02/07 07:32:15;;;;;;;30.17;20.55;;;-4.90;98.00;;;;;;4958627;28;20475;-62
2023/02/07 07:34:41;;;;;;;31.77;21.20;;;-4.90;98.00;;;;;;5036645;28;20037;-62
2023/02/07 07:37:07;;;;;;;29.88;19.65;;;-4.80;98.00;;;;;;5036910;28;20021;-62
2023/02/07 07:39:32;;;;;;;32.78;19.67;;;-4.80;98.00;;;;;;5035181;28;20414;-61
2023/02/07 07:41:58;;;;;;;32.15;20.85;;;-4.70;98.00;;;;;;5035554;28;20430;-62
2023/02/07 07:44:24;;;;;;;28.38;19.65;;;-4.60;98.00;;;;;;5036245;28;20033;-62
2023/02/07 07:46:50;;;;;;;41.50;21.13;;;-4.50;98.00;;;;;;5035982;28;20025;-62
2023/02/07 07:49:15;;;;;;;32.55;21.13;;;-4.50;98.00;;;;;;5042111;28;20056;-62
2023/02/07 07:51:41;;;;;;;32.30;19.90;;;-4.40;98.00;;;;;;5056097;28;20028;-62
2023/02/07 07:54:06;;;;;;;29.98;18.88;;;-4.30;98.00;;;;;;5042695;28;20326;-61
2023/02/07 07:56:34;;;;;;;30.05;19.92;;;-4.20;98.00;;;;;;5043562;28;20104;-61
2023/02/07 07:59:00;;;;;;;31.08;20.13;;;-4.10;98.00;;;;;;5044695;28;20131;-62
2023/02/07 08:01:25;;;;;;;34.00;20.85;;;-3.90;98.00;;;;;;5045503;28;20464;-61
2023/02/07 08:03:51;;;;;;;35.45;20.45;;;-3.90;98.00;;;;;;5036452;28;20029;-62
2023/02/07 08:06:16;;;;;;;32.58;20.45;;;-3.80;98.00;;;;;;5046921;28;20055;-62
2023/02/07 08:08:42;;;;;;;30.15;20.02;;;-3.70;98.00;;;;;;5039950;28;20041;-62
2023/02/07 08:11:09;;;;;;;31.95;20.42;;;-3.60;98.00;;;;;;5037686;28;20033;-62
2023/02/07 08:13:35;;;;;;;29.63;20.48;;;-3.70;98.00;;;;;;5046427;28;20033;-62
2023/02/07 08:16:01;;;;;;;29.08;19.65;;;-3.70;98.00;;;;;;5038028;28;20367;-62
2023/02/07 08:18:27;;;;;;;27.83;18.92;;;-3.50;98.00;;;;;;5035914;28;20021;-62
2023/02/07 08:20:53;;;;;;;25.27;16.30;;;-2.90;98.00;;;;;;5044972;28;20029;-62
2023/02/07 08:23:19;;;;;;;21.88;14.27;;;-1.40;98.00;;;;;;5054622;28;20037;-62
2023/02/07 08:25:45;;;;;;;19.95;14.18;;;-0.50;95.90;;;;;;5051038;28;20049;-62
2023/02/07 08:28:11;;;;;;;23.00;15.88;;;-0.20;92.60;;;;;;5035668;28;20022;-62
2023/02/07 08:30:37;;;;;;;26.27;18.13;;;-0.50;92.60;;;;;;5035242;28;20036;-62
2023/02/07 08:33:02;;;;;;;24.70;16.73;;;-0.90;93.30;;;;;;5035822;28;20029;-62
2023/02/07 08:35:28;;;;;;;23.83;17.13;;;-1.20;94.10;;;;;;5035751;28;20021;-62
2023/02/07 08:37:54;;;;;;;22.83;16.85;;;-1.40;94.70;;;;;;5039687;28;20044;-62
2023/02/07 08:40:20;;;;;;;25.92;16.83;;;-1.60;95.20;;;;;;5055537;28;20079;-62
2023/02/07 08:42:46;;;;;;;22.38;16.17;;;-1.70;95.50;;;;;;5055537;28;20025;-62
2023/02/07 08:45:12;;;;;;;25.98;17.70;;;-1.80;95.90;;;;;;5055682;28;20040;-62
2023/02/07 08:47:40;;;;;;;21.83;14.95;;;-1.60;96.90;;;;;;5055524;28;20029;-62
2023/02/07 08:50:06;;;;;;;23.33;15.30;;;-1.10;96.00;;;;;;5055673;28;20112;-62
2023/02/07 08:52:32;;;;;;;19.80;14.25;;;-0.20;94.80;;;;;;5052746;28;20021;-61
2023/02/07 08:54:58;;;;;;;18.95;13.05;;;1.70;95.30;;;;;;5054385;28;20103;-61
2023/02/07 08:57:24;;;;;;;20.98;14.63;;;3.40;85.30;;;;;;5055579;28;20025;-61
2023/02/07 08:59:51;;;;;;;21.83;13.73;;;3.70;81.70;;;;;;5055375;28;20095;-61
2023/02/07 09:02:16;;;;;;;17.35;12.88;;;4.00;81.30;;;;;;5055586;28;20075;-64
2023/02/07 09:04:42;;;;;;;19.20;13.77;;;4.20;81.60;;;;;;5055509;28;20342;-63
2023/02/07 09:07:09;;;;;;;19.35;13.52;;;4.70;80.70;;;;;;5054181;28;20036;-63
2023/02/07 09:09:35;;;;;;;18.95;13.95;;;5.00;78.70;;;;;;5054083;28;20037;-62
2023/02/07 09:12:00;;;;;;;19.63;14.88;;;5.40;77.70;;;;;;5055328;28;20090;-63
2023/02/07 09:14:26;;;;;;;17.05;12.95;;;5.30;77.40;;;;;;5055246;28;20032;-63
2023/02/07 09:16:52;;;;;;;15.93;12.25;;;6.00;77.00;;;;;;5055691;28;20101;-63
2023/02/07 09:19:17;;;;;;;20.23;12.75;;;7.00;75.20;;;;;;5058984;28;20036;-63
2023/02/07 09:21:43;;;;;;;20.13;13.65;;;7.40;72.30;;;;;;5058116;28;20036;-63
2023/02/07 09:24:08;;;;;;;18.75;13.82;;;6.90;72.00;;;;;;5057430;28;20028;-62
2023/02/07 09:26:34;;;;;;;18.77;12.52;;;6.80;72.70;;;;;;5058944;28;20029;-62
2023/02/07 09:29:00;;;;;;;17.38;12.25;;;6.60;72.40;;;;;;5058750;28;20083;-63
2023/02/07 09:31:26;;;;;;;16.90;12.95;;;6.30;74.40;;;;;;5058753;28;20060;-62
2023/02/07 09:33:54;;;;;;;17.30;12.85;;;6.50;73.00;;;;;;5058730;28;20040;-63
2023/02/07 09:36:23;;;;;;;19.65;13.35;;;6.50;74.80;;;;;;5057599;28;20025;-63
2023/02/07 09:38:52;;;;;;;18.27;13.52;;;6.70;74.70;;;;;;5053574;28;20100;-63
2023/02/07 09:41:51;;;;;;;18.58;13.43;;;6.80;73.50;;;;;;5049687;28;20469;-63
2023/02/07 09:44:40;;;;;;;23.25;15.38;;;6.40;74.30;;;;;;5038545;28;20026;-63
2023/02/07 09:47:21;;;;;;;18.08;12.60;;;6.40;74.00;;;;;;5038446;28;20097;-63
2023/02/07 09:49:50;;;;;;;14.38;11.30;;;7.30;73.30;;;;;;5038532;28;20025;-63
2023/02/07 09:52:22;;;;;;;13.63;10.55;;;8.50;70.50;;;;;;5038486;28;20025;-63
2023/02/07 09:54:54;;;;;;;15.50;10.82;;;8.00;69.50;;;;;;5038365;28;20040;-63
2023/02/07 09:57:36;;;;;;;15.10;10.52;;;7.20;70.60;;;;;;5054390;28;20029;-63
2023/02/07 10:00:30;;;;;;;14.38;10.70;;;6.40;71.80;;;;;;5058399;28;20025;-63
2023/02/07 10:02:57;;;;;;;15.53;11.07;;;6.20;72.70;;;;;;5056189;28;20314;-63
2023/02/07 10:05:41;;;;;;;18.45;13.45;;;6.40;71.30;;;;;;5058084;28;20100;-62
2023/02/07 10:08:17;;;;;;;18.77;13.77;;;6.50;73.10;;;;;;5056949;28;20029;-63
2023/02/07 10:11:03;;;;;;;19.13;13.73;;;6.70;74.50;;;;;;5056828;28;20032;-63
2023/02/07 10:13:59;;;;;;;20.70;14.20;;;7.00;72.20;;;;;;5057911;28;20033;-63
2023/02/07 10:16:46;;;;;;;15.73;10.60;;;7.60;72.50;;;;;;5057817;28;20025;-63
2023/02/07 10:19:41;;;;;;;15.13;10.82;;;7.80;69.10;;;;;;5057815;28;20049;-63
2023/02/07 10:22:29;;;;;;;21.80;12.93;;;7.80;70.10;;;;;;5057743;28;20295;-63
2023/02/07 10:25:19;;;;;;;16.58;12.57;;;7.00;73.90;;;;;;5054803;28;20053;-63
2023/02/07 10:28:13;;;;;;;30.25;12.57;;;6.00;76.90;;;;;;5042867;28;20035;-63
2023/02/07 10:30:44;;;;;;;15.95;12.02;;;6.00;75.00;;;;;;5044000;28;20022;-62
2023/02/07 10:33:32;;;;;;;21.75;13.93;;;6.10;74.80;;;;;;5037630;28;20032;-62
2023/02/07 10:36:02;;;;;;;17.63;12.82;;;6.80;77.10;;;;;;5037566;28;20025;-63
2023/02/07 10:38:42;;;;;;;19.95;14.32;;;7.40;75.30;;;;;;5036307;28;20040;-62
2023/02/07 10:41:14;;;;;;;21.65;13.23;;;7.40;73.50;;;;;;5037650;28;20033;-63
2023/02/07 10:43:41;;;;;;;29.42;19.60;;;7.70;74.60;;;;;;5037450;28;20147;-63
2023/02/07 10:46:10;;;;;;;17.42;13.60;;;8.60;71.80;;;;;;5037153;28;20386;-63
2023/02/07 10:48:36;;;;;;;17.08;12.40;;;7.90;71.90;;;;;;5037512;28;20040;-63
2023/02/07 10:51:11;;;;;;;19.63;13.40;;;6.70;73.40;;;;;;5037310;28;20026;-62
2023/02/07 10:53:48;;;;;;;18.92;13.90;;;5.70;76.60;;;;;;5036371;28;20426;-62
2023/02/07 10:56:21;;;;;;;20.90;13.88;;;5.40;78.70;;;;;;5037370;28;20037;-63
2023/02/07 10:58:47;;;;;;;17.50;12.95;;;5.20;79.30;;;;;;5037150;28;20025;-64
2023/02/07 11:01:25;;;;;;;22.25;14.35;;;5.60;78.30;;;;;;5054417;28;20036;-63
2023/02/07 11:03:51;;;;;;;18.17;13.32;;;6.20;78.60;;;;;;5057198;28;20064;-63
2023/02/07 11:06:32;;;;;;;19.17;13.13;;;7.00;75.70;;;;;;5056858;28;20326;-64
2023/02/07 11:09:20;;;;;;;20.38;14.43;;;7.00;74.10;;;;;;5055838;28;20036;-63
2023/02/07 11:11:53;;;;;;;16.08;12.27;;;6.40;76.70;;;;;;5056970;28;20075;-64
2023/02/07 11:14:25;;;;;;;19.75;13.07;;;6.70;76.90;;;;;;5050402;28;20029;-64
2023/02/07 11:17:00;;;;;;;17.08;12.82;;;7.10;75.80;;;;;;5046127;28;20421;-64
2023/02/07 11:19:29;;;;;;;16.73;12.30;;;6.60;76.30;;;;;;5056795;28;20070;-63
2023/02/07 11:22:12;;;;;;;16.63;12.75;;;6.30;77.60;;;;;;5056709;28;20104;-64
2023/02/07 11:24:38;;;;;;;19.90;13.43;;;5.80;77.50;;;;;;5055338;28;20041;-64
2023/02/07 11:27:15;;;;;;;15.15;10.95;;;6.10;76.50;;;;;;5056650;28;20025;-64
2023/02/07 11:29:52;;;;;;;19.00;13.10;;;6.60;77.20;;;;;;5055152;28;20052;-64
2023/02/07 11:32:18;;;;;;;14.63;11.43;;;6.20;76.20;;;;;;5056449;28;20025;-64
2023/02/07 11:34:44;;;;;;;17.70;12.75;;;5.60;76.20;;;;;;5056409;28;20444;-64
2023/02/07 11:37:16;;;;;;;16.40;11.13;;;5.30;78.00;;;;;;5056498;28;20028;-64
2023/02/07 11:39:43;;;;;;;15.65;11.35;;;5.30;76.20;;;;;;5055429;28;20021;-63
2023/02/07 11:42:17;;;;;;;15.10;10.50;;;5.70;76.40;;;;;;5056468;28;20021;-63
2023/02/07 11:44:45;;;;;;;15.75;10.82;;;5.80;78.10;;;;;;5055319;28;20021;-63
2023/02/07 11:47:22;;;;;;;13.15;10.32;;;5.50;76.10;;;;;;5056090;28;20421;-63
2023/02/07 11:49:53;;;;;;;14.38;9.48;;;5.50;76.30;;;;;;5056274;28;20395;-62
2023/02/07 11:52:20;;;;;;;13.65;9.98;;;5.70;74.00;;;;;;5054873;28;20029;-63
2023/02/07 11:54:55;;;;;;;13.23;9.30;;;5.90;77.30;;;;;;5055968;28;20052;-62
2023/02/07 11:57:22;;;;;;;12.02;9.45;;;5.90;73.30;;;;;;5056267;28;20049;-65
2023/02/07 12:00:00;;;;;;;12.93;9.77;;;5.90;76.40;;;;;;5054453;28;20083;-65
2023/02/07 12:02:28;;;;;;;14.30;8.85;;;6.30;76.70;;;;;;5055916;28;20100;-63
2023/02/07 12:04:54;;;;;;;12.85;9.00;;;6.10;73.80;;;;;;5055982;28;20040;-64
2023/02/07 12:07:33;;;;;;;15.63;9.38;;;6.00;76.00;;;;;;5054766;28;20083;-63
2023/02/07 12:10:04;;;;;;;11.25;8.43;;;5.80;75.40;;;;;;5055699;28;20418;-64
2023/02/07 12:12:42;;;;;;;11.70;8.88;;;5.80;75.40;;;;;;5056051;28;20071;-63
2023/02/07 12:15:27;;;;;;;12.00;8.45;;;6.00;75.70;;;;;;5054611;28;20033;-63
2023/02/07 12:18:09;;;;;;;12.85;9.07;;;6.30;74.60;;;;;;5044838;28;20022;-64
2023/02/07 12:20:49;;;;;;;10.95;8.30;;;6.50;75.40;;;;;;5035852;28;20104;-64
2023/02/07 12:24:00;;;;;;;12.15;8.98;;;6.40;73.80;;;;;;5034749;28;20017;-64
2023/02/07 12:26:37;;;;;;;11.82;9.35;;;6.00;74.30;;;;;;5014107;28;20041;-64
2023/02/07 12:29:24;;;;;;;13.25;9.05;;;5.60;74.40;;;;;;5032528;28;20323;-64
2023/02/07 12:31:55;;;;;;;14.55;9.20;;;5.40;75.50;;;;;;5035272;28;20018;-64
2023/02/07 12:34:42;;;;;;;13.38;9.20;;;5.40;77.90;;;;;;5035718;28;20100;-64
2023/02/07 12:37:17;;;;;;;12.23;8.50;;;5.30;77.00;;;;;;5035829;28;20105;-64
2023/02/07 12:40:06;;;;;;;13.68;8.95;;;5.40;76.70;;;;;;5035720;28;20147;-65
2023/02/07 12:42:38;;;;;;;15.80;9.45;;;5.30;76.50;;;;;;5035828;28;20025;-65
2023/02/07 12:45:05;;;;;;;11.18;8.27;;;5.30;75.90;;;;;;5035738;28;20037;-65
2023/02/07 12:48:00;;;;;;;13.73;9.55;;;5.40;77.20;;;;;;5035710;28;20588;-65